Time;durP1;ratioP1;P1;durP2;ratioP2;P2;SDS_P1;SDS_P2;PMS_P1;PMS_P2;Temp;Humidity;BMP_temperature;BMP_pressure;BME280_temperature;BME280_humidity;BME280_pressure;Samples;Min_cycle;Max_cycle;Signal;HPM_P1;HPM_P2
2023/10/07 00:02:12;;;;;;;2.85;0.00;;;;;;;12.48;73.88;98803.81;5065681;28;20044;-75
2023/10/07 00:04:41;;;;;;;0.00;0.00;;;;;;;12.41;73.65;98823.41;5073704;28;20135;-74
2023/10/07 00:07:11;;;;;;;0.70;0.00;;;;;;;12.34;72.65;98830.78;5065687;28;20043;-75
2023/10/07 00:09:43;;;;;;;1.38;0.00;;;;;;;12.27;72.44;98825.06;5069704;28;20059;-74
2023/10/07 00:12:13;;;;;;;0.00;0.00;;;;;;;12.12;72.28;98836.38;5066223;28;20040;-74
2023/10/07 00:14:40;;;;;;;0.00;0.00;;;;;;;12.12;72.13;98854.69;5067981;28;20059;-74
2023/10/07 00:17:12;;;;;;;0.00;0.00;;;;;;;12.04;71.26;98852.53;5077429;28;20051;-74
2023/10/07 00:19:40;;;;;;;0.08;0.00;;;;;;;11.93;70.69;98860.97;5066131;28;20059;-74
2023/10/07 00:22:09;;;;;;;0.00;0.00;;;;;;;11.83;70.67;98858.88;5068680;28;20058;-74
2023/10/07 00:24:43;;;;;;;0.13;0.00;;;;;;;11.75;70.08;98867.13;5054038;28;20052;-74
2023/10/07 00:27:21;;;;;;;0.00;0.00;;;;;;;11.67;70.08;98869.34;5074707;28;20048;-74
2023/10/07 00:29:54;;;;;;;0.00;0.00;;;;;;;11.61;70.01;98877.50;5070123;28;20075;-79
2023/10/07 00:32:26;;;;;;;2.30;0.08;;;;;;;11.55;69.86;98885.66;5057862;28;20113;-80
2023/10/07 00:34:55;;;;;;;0.10;0.00;;;;;;;11.47;70.14;98889.53;5075100;28;20048;-79
2023/10/07 00:37:25;;;;;;;0.00;0.00;;;;;;;11.42;70.24;98893.31;5078099;28;20749;-79
2023/10/07 00:39:53;;;;;;;0.00;0.00;;;;;;;11.37;70.58;98904.00;5069551;28;20045;-78
2023/10/07 00:42:22;;;;;;;0.90;0.00;;;;;;;11.25;69.79;98888.97;5080783;28;20071;-79
2023/10/07 00:44:53;;;;;;;0.00;0.00;;;;;;;11.26;70.23;98895.88;5073237;28;20147;-79
2023/10/07 00:47:21;;;;;;;0.00;0.00;;;;;;;11.21;70.17;98914.41;5069798;28;20123;-77
2023/10/07 00:49:54;;;;;;;0.00;0.00;;;;;;;11.17;70.53;98912.03;5070307;28;20040;-75
2023/10/07 00:52:40;;;;;;;0.03;0.00;;;;;;;11.13;70.47;98926.19;5067794;28;20051;-74
2023/10/07 00:55:17;;;;;;;0.00;0.00;;;;;;;11.09;70.40;98922.84;5071304;28;20048;-74
2023/10/07 00:57:51;;;;;;;0.22;0.00;;;;;;;11.01;70.36;98933.72;5060458;28;20056;-74
2023/10/07 01:00:40;;;;;;;0.00;0.00;;;;;;;10.99;70.88;98940.78;5070553;28;20447;-75
2023/10/07 01:03:17;;;;;;;0.00;0.00;;;;;;;10.94;71.08;98931.47;5070627;28;20085;-74
2023/10/07 01:05:55;;;;;;;0.00;0.00;;;;;;;10.90;70.89;98941.22;5066610;28;20042;-74
2023/10/07 01:08:27;;;;;;;4.38;0.00;;;;;;;10.86;70.88;98939.69;5067527;28;20046;-75
2023/10/07 01:11:06;;;;;;;0.10;0.00;;;;;;;10.78;70.53;98941.81;5064541;28;20048;-74
2023/10/07 01:13:34;;;;;;;0.00;0.00;;;;;;;10.78;70.99;98958.31;5068838;28;20435;-75
2023/10/07 01:16:06;;;;;;;0.00;0.00;;;;;;;10.75;70.97;98961.09;5068538;28;20047;-74
2023/10/07 01:18:38;;;;;;;0.00;0.00;;;;;;;10.72;71.06;98966.47;5069274;28;20135;-74
2023/10/07 01:21:08;;;;;;;0.00;0.00;;;;;;;10.68;71.07;98966.69;5072993;28;20500;-74
2023/10/07 01:23:36;;;;;;;1.45;0.00;;;;;;;10.61;70.77;98981.78;5067976;28;20044;-74
2023/10/07 01:26:14;;;;;;;0.65;0.00;;;;;;;10.58;71.06;98989.75;5074709;28;20662;-74
2023/10/07 01:28:43;;;;;;;0.00;0.00;;;;;;;10.50;71.11;98984.06;5077892;28;20044;-75
2023/10/07 01:31:12;;;;;;;2.85;0.00;;;;;;;10.50;71.17;98982.31;5071432;28;20063;-74
2023/10/07 01:33:41;;;;;;;0.00;0.00;;;;;;;10.45;70.38;99001.72;5073779;28;20493;-75
2023/10/07 01:36:13;;;;;;;0.00;0.00;;;;;;;10.41;70.40;99000.16;5068558;28;20068;-74
2023/10/07 01:38:44;;;;;;;0.00;0.00;;;;;;;10.36;70.60;99010.81;5078676;28;20045;-76
2023/10/07 01:41:18;;;;;;;1.90;0.00;;;;;;;10.26;70.57;99010.34;5067080;28;20098;-77
2023/10/07 01:43:56;;;;;;;0.00;0.00;;;;;;;10.24;70.63;99019.16;5080180;28;20137;-77
2023/10/07 01:46:27;;;;;;;0.52;0.00;;;;;;;10.25;70.79;99032.16;5072612;28;20071;-77
2023/10/07 01:48:57;;;;;;;0.43;0.00;;;;;;;10.21;70.58;99029.72;5078033;28;20048;-76
2023/10/07 01:51:26;;;;;;;0.10;0.00;;;;;;;10.17;70.44;99042.06;5070666;28;20607;-78
2023/10/07 01:53:56;;;;;;;0.00;0.00;;;;;;;10.09;70.44;99033.75;5074106;28;20040;-77
2023/10/07 01:56:26;;;;;;;0.32;0.00;;;;;;;10.09;70.41;99037.19;5066627;28;20055;-76
2023/10/07 01:58:57;;;;;;;1.75;0.00;;;;;;;9.94;70.68;99021.38;5071444;28;20569;-80
2023/10/07 02:01:28;;;;;;;0.00;0.00;;;;;;;10.01;70.41;99039.28;5081708;28;20071;-80
2023/10/07 02:03:57;;;;;;;0.00;0.00;;;;;;;9.99;70.59;99058.53;5073128;28;20478;-80
2023/10/07 02:06:26;;;;;;;0.00;0.00;;;;;;;9.93;70.45;99050.97;5063333;28;20097;-80
2023/10/07 02:08:55;;;;;;;2.17;0.00;;;;;;;9.94;70.76;99063.13;5078793;28;20140;-80
2023/10/07 02:11:31;;;;;;;0.00;0.00;;;;;;;9.92;70.66;99063.16;5078696;28;20044;-79
2023/10/07 02:13:58;;;;;;;0.77;0.00;;;;;;;9.81;70.82;99065.38;5079461;28;20056;-80
2023/10/07 02:16:27;;;;;;;0.00;0.00;;;;;;;9.88;70.49;99082.47;5083406;28;20131;-79
2023/10/07 02:18:54;;;;;;;1.88;0.00;;;;;;;9.82;70.30;99082.75;5077276;28;20044;-80
2023/10/07 02:21:22;;;;;;;0.00;0.00;;;;;;;9.81;70.58;99089.69;5074835;28;20051;-80
2023/10/07 02:23:49;;;;;;;0.00;0.00;;;;;;;9.72;70.76;99082.28;5075060;28;20104;-79
2023/10/07 02:26:19;;;;;;;0.00;0.00;;;;;;;9.74;70.40;99093.50;5077178;28;20044;-79
2023/10/07 02:28:50;;;;;;;0.00;0.00;;;;;;;9.72;70.52;99100.53;5076156;28;20047;-79
2023/10/07 02:31:18;;;;;;;0.00;0.00;;;;;;;9.69;70.65;99111.09;5080727;28;20113;-80
2023/10/07 02:33:45;;;;;;;0.00;0.00;;;;;;;9.67;70.92;99105.06;5080869;28;20071;-81
2023/10/07 02:36:27;;;;;;;0.00;0.00;;;;;;;9.62;70.53;99120.94;5076049;28;20131;-79
2023/10/07 02:38:54;;;;;;;0.90;0.00;;;;;;;9.58;70.44;99121.94;5076066;28;20069;-79
2023/10/07 02:41:24;;;;;;;0.00;0.00;;;;;;;9.56;70.29;99130.72;5088249;28;20040;-79
2023/10/07 02:43:51;;;;;;;0.00;0.00;;;;;;;9.48;70.16;99131.06;5076654;28;20488;-79
2023/10/07 02:46:31;;;;;;;0.00;0.00;;;;;;;9.45;70.27;99133.78;5081636;28;20036;-79
2023/10/07 02:49:04;;;;;;;0.00;0.00;;;;;;;9.44;70.30;99148.56;5077450;28;21608;-74
2023/10/07 02:51:31;;;;;;;0.00;0.00;;;;;;;9.42;70.22;99149.53;5076962;28;20190;-75
2023/10/07 02:54:05;;;;;;;0.03;0.00;;;;;;;9.37;70.21;99149.72;5075897;28;20044;-74
2023/10/07 02:56:43;;;;;;;0.15;0.00;;;;;;;9.33;69.67;99179.41;5080271;28;20499;-75
2023/10/07 02:59:23;;;;;;;0.00;0.00;;;;;;;9.29;69.60;99170.03;5075483;28;20044;-74
2023/10/07 03:01:58;;;;;;;0.52;0.00;;;;;;;9.18;69.91;99162.63;5073848;28;20040;-75
2023/10/07 03:04:34;;;;;;;0.15;0.00;;;;;;;9.19;69.87;99205.16;5078228;28;20527;-74
2023/10/07 03:07:13;;;;;;;1.77;0.00;;;;;;;9.14;69.79;99192.31;5073555;28;20045;-74
2023/10/07 03:09:42;;;;;;;0.00;0.00;;;;;;;9.07;69.38;99201.25;5070495;28;20048;-76
2023/10/07 03:12:13;;;;;;;0.00;0.00;;;;;;;9.07;69.65;99201.25;5082303;28;20529;-76
2023/10/07 03:14:43;;;;;;;0.00;0.00;;;;;;;9.04;69.60;99216.16;5075773;28;20048;-76
2023/10/07 03:17:18;;;;;;;0.00;0.00;;;;;;;8.99;69.38;99219.78;5075437;28;20052;-76
2023/10/07 03:19:52;;;;;;;3.88;0.00;;;;;;;8.95;69.86;99217.34;5063674;28;20145;-76
2023/10/07 03:22:28;;;;;;;0.10;0.00;;;;;;;8.92;69.87;99220.06;5075730;28;21500;-75
2023/10/07 03:25:00;;;;;;;0.00;0.00;;;;;;;8.87;69.27;99230.63;5075052;28;20055;-77
2023/10/07 03:27:28;;;;;;;0.00;0.00;;;;;;;8.85;69.76;99236.78;5080780;28;20039;-76
2023/10/07 03:30:12;;;;;;;0.00;0.00;;;;;;;8.83;69.74;99255.09;5076205;28;20053;-76
2023/10/07 03:35:47;;;;;;;0.00;0.00;;;;;;;8.77;69.72;99250.09;5118825;27;20128;-75
2023/10/07 03:38:13;;;;;;;0.00;0.00;;;;;;;8.70;69.78;99244.25;5098377;28;20088;-74
2023/10/07 03:40:48;;;;;;;0.00;0.00;;;;;;;8.72;69.59;99255.47;5086202;28;20492;-75
2023/10/07 03:43:16;;;;;;;0.00;0.00;;;;;;;8.68;69.42;99251.28;5078911;28;20044;-75
2023/10/07 03:45:45;;;;;;;0.98;0.85;;;;;;;8.66;69.40;99279.13;5089203;28;20048;-79
2023/10/07 03:48:24;;;;;;;0.25;0.00;;;;;;;8.64;69.37;99291.31;5086150;28;20043;-75
2023/10/07 03:51:04;;;;;;;0.38;0.00;;;;;;;8.59;69.68;99298.44;5090257;28;20485;-75
2023/10/07 03:53:32;;;;;;;0.00;0.00;;;;;;;8.58;69.51;99301.09;5089726;28;20476;-75
2023/10/07 03:56:06;;;;;;;1.55;0.00;;;;;;;8.56;69.65;99308.94;5084531;28;20526;-75
2023/10/07 03:58:36;;;;;;;0.20;0.00;;;;;;;8.55;70.14;99318.50;5087424;28;20079;-73
2023/10/07 04:01:11;;;;;;;0.00;0.00;;;;;;;8.54;69.72;99316.81;5085643;28;20043;-73
2023/10/07 04:03:40;;;;;;;0.60;0.00;;;;;;;8.53;70.20;99322.06;5081752;28;20052;-74
2023/10/07 04:06:09;;;;;;;0.65;0.00;;;;;;;8.50;70.32;99345.59;5090103;28;20056;-74
2023/10/07 04:08:39;;;;;;;0.00;0.00;;;;;;;8.50;69.77;99340.38;5080518;28;20062;-73
2023/10/07 04:11:16;;;;;;;0.03;0.00;;;;;;;8.47;70.27;99350.91;5092457;28;20044;-73
2023/10/07 04:13:43;;;;;;;0.00;0.00;;;;;;;8.44;69.76;99353.59;5080171;28;20090;-73
2023/10/07 04:16:22;;;;;;;0.00;0.00;;;;;;;8.43;70.11;99357.97;5086884;28;20044;-73
2023/10/07 04:18:49;;;;;;;0.00;0.00;;;;;;;8.37;70.18;99350.31;5086343;28;20460;-77
2023/10/07 04:21:18;;;;;;;0.00;0.00;;;;;;;8.38;69.88;99377.19;5093394;28;20040;-79
2023/10/07 04:23:45;;;;;;;0.98;0.00;;;;;;;8.34;69.88;99386.84;5088653;28;21043;-78
2023/10/07 04:26:19;;;;;;;1.77;0.00;;;;;;;8.31;69.69;99376.50;5093362;28;20074;-76
2023/10/07 04:28:48;;;;;;;0.00;0.00;;;;;;;8.28;69.51;99384.41;5093273;28;20055;-73
2023/10/07 04:31:15;;;;;;;0.10;0.00;;;;;;;8.26;69.73;99386.25;5082786;28;20135;-73
2023/10/07 04:33:47;;;;;;;0.00;0.00;;;;;;;8.25;69.97;99389.72;5087942;28;20139;-74
2023/10/07 04:36:17;;;;;;;2.30;0.00;;;;;;;8.23;69.81;99392.38;5084309;28;20128;-73
2023/10/07 04:38:57;;;;;;;2.20;0.00;;;;;;;8.21;69.28;99399.38;5083082;28;20058;-73
2023/10/07 04:41:36;;;;;;;0.00;0.00;;;;;;;8.19;69.47;99401.16;5085054;28;20094;-74
2023/10/07 04:47:20;;;;;;;0.00;0.00;;;;;;;8.14;69.33;99408.28;5063849;28;20052;-73
2023/10/07 04:49:55;;;;;;;0.00;0.00;;;;;;;8.07;69.15;99411.94;5072734;28;20045;-74
2023/10/07 04:52:24;;;;;;;0.00;0.00;;;;;;;8.08;69.03;99429.25;5072450;28;20131;-73
2023/10/07 04:54:53;;;;;;;2.45;0.00;;;;;;;8.07;68.63;99430.16;5070820;28;20040;-73
2023/10/07 04:57:39;;;;;;;1.13;0.00;;;;;;;8.04;68.85;99432.84;5071025;28;20135;-74
2023/10/07 05:00:08;;;;;;;0.00;0.00;;;;;;;7.96;68.37;99447.81;5070420;28;20052;-73
2023/10/07 05:02:35;;;;;;;0.08;0.00;;;;;;;7.98;68.30;99451.25;5071448;28;20443;-72
2023/10/07 05:05:09;;;;;;;2.90;0.00;;;;;;;7.96;67.77;99458.22;5070256;28;20048;-74
2023/10/07 05:07:38;;;;;;;2.08;0.00;;;;;;;7.94;67.75;99460.00;5068913;28;20048;-73
2023/10/07 05:10:08;;;;;;;0.00;0.00;;;;;;;7.91;67.92;99471.34;5069094;28;20055;-73
2023/10/07 05:12:35;;;;;;;0.75;0.00;;;;;;;7.87;67.44;99493.97;5073110;28;20546;-73
2023/10/07 05:15:05;;;;;;;0.25;0.00;;;;;;;7.83;67.26;99489.78;5063696;28;20049;-73
2023/10/07 05:17:36;;;;;;;2.47;0.00;;;;;;;7.80;67.25;99496.81;5072794;28;20049;-85
2023/10/07 05:20:24;;;;;;;0.63;0.00;;;;;;;7.77;67.22;99500.34;5074722;28;20039;-82
2023/10/07 05:22:50;;;;;;;0.00;0.00;;;;;;;7.75;67.06;99516.88;5074846;28;20045;-85
2023/10/07 05:25:19;;;;;;;2.63;0.00;;;;;;;7.72;67.61;99515.22;5083692;28;20059;-83
2023/10/07 05:27:45;;;;;;;0.45;0.00;;;;;;;7.64;66.80;99515.41;5078296;28;20064;-85
2023/10/07 05:30:15;;;;;;;0.47;0.00;;;;;;;7.65;67.08;99537.91;5075850;28;20059;-84
2023/10/07 05:32:42;;;;;;;0.40;0.00;;;;;;;7.62;66.72;99531.94;5077669;28;20055;-84
2023/10/07 05:35:09;;;;;;;0.00;0.00;;;;;;;7.59;66.59;99548.47;5081806;28;20047;-84
2023/10/07 05:37:36;;;;;;;2.72;0.00;;;;;;;7.57;66.86;99557.19;5080475;28;20052;-73
2023/10/07 05:40:06;;;;;;;0.00;0.00;;;;;;;7.52;66.29;99552.13;5068518;28;20079;-74
2023/10/07 05:42:35;;;;;;;0.20;0.20;;;;;;;7.51;66.85;99549.56;5073964;28;20046;-73
2023/10/07 05:45:04;;;;;;;0.05;0.00;;;;;;;7.49;66.90;99566.94;5068033;28;20056;-73
2023/10/07 05:47:32;;;;;;;0.10;0.00;;;;;;;7.44;67.16;99574.84;5068619;28;20139;-73
2023/10/07 05:50:00;;;;;;;0.30;0.00;;;;;;;7.43;66.26;99581.78;5069671;28;20547;-74
2023/10/07 05:52:27;;;;;;;3.92;0.03;;;;;;;7.37;66.96;99563.75;5065094;28;20083;-73
2023/10/07 05:54:56;;;;;;;1.67;0.00;;;;;;;7.34;66.84;99608.00;5076399;28;21084;-73
2023/10/07 05:57:23;;;;;;;1.45;0.00;;;;;;;7.30;66.71;99590.75;5070502;28;20045;-73
2023/10/07 05:59:52;;;;;;;0.10;0.00;;;;;;;7.26;66.85;99607.31;5068631;28;20422;-72
2023/10/07 06:02:18;;;;;;;0.55;0.00;;;;;;;7.24;66.50;99592.66;5067712;28;20701;-72
2023/10/07 06:04:45;;;;;;;0.00;0.00;;;;;;;7.19;67.03;99606.59;5071027;28;20059;-74
2023/10/07 06:07:20;;;;;;;0.10;0.00;;;;;;;7.10;67.05;99599.03;5070290;28;20416;-73
2023/10/07 06:09:47;;;;;;;0.15;0.00;;;;;;;7.16;66.92;99642.19;5068732;28;20577;-73
2023/10/07 06:12:15;;;;;;;0.05;0.00;;;;;;;7.11;67.38;99623.25;5069180;28;20044;-73
2023/10/07 06:14:43;;;;;;;0.00;0.00;;;;;;;7.08;67.24;99618.13;5068921;28;20049;-73
2023/10/07 06:17:11;;;;;;;0.00;0.00;;;;;;;7.06;67.49;99622.50;5073434;28;20050;-73
2023/10/07 06:19:43;;;;;;;0.05;0.00;;;;;;;7.04;67.97;99629.47;5066346;28;20047;-74
2023/10/07 06:22:12;;;;;;;0.30;0.10;;;;;;;7.02;67.40;99639.03;5070653;28;20047;-74
2023/10/07 06:24:41;;;;;;;2.92;0.00;;;;;;;6.99;67.63;99640.81;5065570;28;20084;-76
2023/10/07 06:27:11;;;;;;;1.60;0.10;;;;;;;6.98;67.81;99643.44;5072419;28;20052;-74
2023/10/07 06:29:43;;;;;;;2.50;0.10;;;;;;;6.96;68.06;99656.44;5072764;28;20511;-81
2023/10/07 06:32:23;;;;;;;1.75;0.00;;;;;;;6.97;68.48;99657.31;5079393;28;20046;-82
2023/10/07 06:34:51;;;;;;;3.90;0.10;;;;;;;6.96;68.65;99682.41;5078815;28;20052;-82
2023/10/07 06:37:28;;;;;;;1.55;0.00;;;;;;;6.92;68.29;99675.59;5078081;28;20047;-82
2023/10/07 06:39:57;;;;;;;1.30;0.10;;;;;;;6.93;68.52;99692.88;5084162;28;20620;-80
2023/10/07 06:42:24;;;;;;;0.10;0.05;;;;;;;6.90;68.63;99697.28;5076652;28;20049;-83
2023/10/07 06:44:54;;;;;;;0.00;0.00;;;;;;;6.89;67.91;99695.59;5078521;28;20955;-83
2023/10/07 06:47:23;;;;;;;0.25;0.00;;;;;;;6.86;67.85;99711.19;5080476;28;20448;-73
2023/10/07 06:49:52;;;;;;;0.28;0.10;;;;;;;6.82;67.94;99704.38;5071045;28;20776;-73
2023/10/07 06:52:20;;;;;;;3.58;0.10;;;;;;;6.82;68.18;99707.81;5070424;28;20725;-73
2023/10/07 06:54:48;;;;;;;0.17;0.00;;;;;;;6.81;68.09;99718.25;5072735;28;20556;-73
2023/10/07 06:57:17;;;;;;;0.38;0.10;;;;;;;6.79;68.01;99694.91;5071215;28;20048;-73
2023/10/07 06:59:45;;;;;;;1.00;0.10;;;;;;;6.82;68.03;99709.56;5067510;28;20981;-74
2023/10/07 07:02:18;;;;;;;1.90;0.70;;;;;;;6.77;67.78;99712.22;5071307;28;20041;-75
2023/10/07 07:04:47;;;;;;;0.85;0.10;;;;;;;6.83;68.15;99732.91;5070524;28;20072;-74
2023/10/07 07:07:16;;;;;;;0.20;0.10;;;;;;;6.83;67.91;99727.72;5068702;28;20055;-74
2023/10/07 07:09:51;;;;;;;0.82;0.10;;;;;;;6.84;67.47;99733.75;5066623;28;20109;-75
2023/10/07 07:12:21;;;;;;;0.38;0.05;;;;;;;6.85;68.11;99725.06;5068284;28;20060;-73
2023/10/07 07:14:59;;;;;;;0.20;0.00;;;;;;;6.75;67.20;99729.59;5067778;28;20143;-74
2023/10/07 07:17:36;;;;;;;2.20;0.00;;;;;;;6.84;67.45;99734.59;5069968;28;20064;-73
2023/10/07 07:22:51;;;;;;;0.17;0.00;;;;;;;6.88;66.50;99761.34;5063229;28;20071;-74
2023/10/07 07:25:35;;;;;;;3.38;0.10;;;;;;;6.89;66.42;99766.53;5066768;28;20527;-74
2023/10/07 07:28:04;;;;;;;2.40;0.00;;;;;;;6.94;66.70;99766.41;5063577;28;20059;-74
2023/10/07 07:30:30;;;;;;;1.50;0.10;;;;;;;6.94;66.57;99758.63;5070313;28;20128;-74
2023/10/07 07:32:59;;;;;;;0.35;0.00;;;;;;;6.96;65.84;99778.47;5065954;28;20072;-75
2023/10/07 07:35:39;;;;;;;0.95;0.10;;;;;;;7.01;65.46;99780.16;5069393;28;20047;-73
2023/10/07 07:38:18;;;;;;;0.82;0.10;;;;;;;7.04;65.69;99783.53;5063374;28;20044;-74
2023/10/07 07:40:45;;;;;;;0.08;0.00;;;;;;;7.07;65.20;99788.66;5067784;28;20044;-74
2023/10/07 07:43:13;;;;;;;0.22;0.00;;;;;;;7.01;65.20;99787.94;5067704;28;20036;-74
2023/10/07 07:45:41;;;;;;;1.73;0.00;;;;;;;7.14;64.60;99816.25;5065017;28;20044;-74
2023/10/07 07:48:10;;;;;;;0.00;0.00;;;;;;;7.18;64.12;99809.22;5069438;28;20052;-74
2023/10/07 07:50:41;;;;;;;0.08;0.00;;;;;;;7.21;64.42;99806.56;5067973;28;21359;-75
2023/10/07 07:53:09;;;;;;;2.78;0.00;;;;;;;7.20;63.48;99818.69;5065413;28;20104;-74
2023/10/07 07:55:41;;;;;;;0.08;0.00;;;;;;;7.19;63.15;99832.56;5067650;28;20050;-74
2023/10/07 07:58:09;;;;;;;0.35;0.00;;;;;;;7.25;63.29;99838.53;5069030;28;20166;-77
2023/10/07 08:00:40;;;;;;;0.50;0.00;;;;;;;7.27;62.21;99840.22;5054499;28;20145;-76
2023/10/07 08:03:08;;;;;;;0.57;0.10;;;;;;;7.30;62.64;99873.91;5071151;28;20129;-76
2023/10/07 08:05:36;;;;;;;0.10;0.00;;;;;;;7.34;62.45;99849.59;5071993;28;20051;-77
2023/10/07 08:08:09;;;;;;;0.10;0.00;;;;;;;7.27;62.16;99834.16;5074416;28;20040;-76
2023/10/07 08:10:36;;;;;;;0.10;0.00;;;;;;;7.41;61.50;99860.72;5071193;28;20040;-77
2023/10/07 08:13:07;;;;;;;0.40;0.03;;;;;;;7.44;61.81;99873.66;5075952;28;20456;-76
2023/10/07 08:15:41;;;;;;;0.00;0.00;;;;;;;7.42;60.84;99878.84;5072491;28;20060;-76
2023/10/07 08:18:09;;;;;;;0.10;0.00;;;;;;;7.48;60.84;99893.47;5070606;28;20044;-76
2023/10/07 08:20:44;;;;;;;3.03;0.82;;;;;;;7.50;61.05;99896.06;5077426;28;20054;-77
2023/10/07 08:23:22;;;;;;;1.08;0.00;;;;;;;7.49;61.63;99890.00;5080584;28;20051;-77
2023/10/07 08:25:57;;;;;;;0.40;0.15;;;;;;;7.57;61.15;99921.00;5080271;28;20056;-77
2023/10/07 08:28:39;;;;;;;0.10;0.00;;;;;;;7.59;61.27;99922.69;5076169;28;20417;-77
2023/10/07 08:31:13;;;;;;;0.00;0.00;;;;;;;7.61;60.43;99920.09;5076130;28;20055;-76
2023/10/07 08:33:40;;;;;;;0.55;0.00;;;;;;;7.63;60.86;99934.78;5075911;28;20087;-78
2023/10/07 08:36:08;;;;;;;0.03;0.00;;;;;;;7.62;60.27;99937.38;5070898;28;20051;-77
2023/10/07 08:38:43;;;;;;;1.15;0.03;;;;;;;7.67;59.87;99935.56;5075942;28;20056;-77
2023/10/07 08:41:16;;;;;;;0.25;0.10;;;;;;;7.65;59.92;99943.38;5068976;28;20068;-77
2023/10/07 08:43:45;;;;;;;0.47;0.05;;;;;;;7.70;59.73;99955.44;5078119;28;20036;-77
2023/10/07 08:46:16;;;;;;;0.05;0.00;;;;;;;7.72;60.17;99972.72;5074980;28;20079;-77
2023/10/07 08:48:49;;;;;;;0.28;0.00;;;;;;;7.72;59.08;99985.72;5078609;28;20496;-77
2023/10/07 08:51:21;;;;;;;0.20;0.10;;;;;;;7.62;58.76;99963.38;5079507;28;20745;-78
2023/10/07 08:53:52;;;;;;;0.63;0.05;;;;;;;7.74;58.90;99972.66;5073940;28;20626;-77
2023/10/07 08:56:25;;;;;;;1.38;0.13;;;;;;;7.76;58.78;100004.72;5079118;28;20036;-78
2023/10/07 08:58:52;;;;;;;0.10;0.00;;;;;;;7.75;58.47;100006.47;5076975;28;20571;-78
2023/10/07 09:01:19;;;;;;;0.95;0.00;;;;;;;7.76;58.45;100005.56;5080646;28;20539;-78
2023/10/07 09:03:48;;;;;;;0.20;0.10;;;;;;;7.78;57.93;100001.19;5069115;28;20091;-77
2023/10/07 09:06:16;;;;;;;0.20;0.00;;;;;;;7.80;58.02;99994.22;5081654;28;20502;-78
2023/10/07 09:08:43;;;;;;;0.10;0.10;;;;;;;7.80;57.55;100021.97;5075794;28;20049;-85
2023/10/07 09:11:18;;;;;;;0.30;0.10;;;;;;;7.82;57.08;100018.44;5082759;28;20131;-83
2023/10/07 09:13:46;;;;;;;2.60;0.10;;;;;;;7.83;57.25;100027.97;5082485;28;20054;-85
2023/10/07 09:16:14;;;;;;;2.88;0.10;;;;;;;7.85;57.61;100038.31;5085833;28;20051;-86
2023/10/07 09:18:41;;;;;;;0.40;0.30;;;;;;;7.86;57.23;100034.84;5083601;28;20046;-83
2023/10/07 09:21:11;;;;;;;1.08;0.10;;;;;;;7.82;57.21;100039.22;5084737;28;20057;-85
2023/10/07 09:23:43;;;;;;;0.00;0.00;;;;;;;7.80;57.26;100041.03;5085736;28;20109;-86
2023/10/07 09:26:21;;;;;;;0.28;0.20;;;;;;;7.92;56.50;100054.69;5080857;28;20052;-84
2023/10/07 09:28:58;;;;;;;0.15;0.05;;;;;;;8.04;56.83;100070.03;5081607;28;20135;-89
2023/10/07 09:31:27;;;;;;;0.43;0.08;;;;;;;8.10;56.80;100075.13;5083616;28;20083;-87
2023/10/07 09:33:55;;;;;;;0.50;0.05;;;;;;;8.09;55.99;100087.28;5084013;28;20456;-89
2023/10/07 09:36:33;;;;;;;0.10;0.00;;;;;;;8.12;56.51;100091.56;5078864;28;20492;-87
2023/10/07 09:42:04;;;;;;;0.15;0.08;;;;;;;8.14;55.80;100082.00;5080653;28;20516;-86
2023/10/07 09:44:30;;;;;;;0.73;0.10;;;;;;;8.27;55.58;100099.06;5080332;28;20055;-89
2023/10/07 09:47:03;;;;;;;1.92;0.10;;;;;;;8.22;55.57;100116.50;5082185;28;20063;-86
2023/10/07 09:49:32;;;;;;;0.52;0.10;;;;;;;8.27;54.99;100121.63;5079347;28;20494;-85
2023/10/07 09:52:15;;;;;;;2.10;0.10;;;;;;;8.27;54.86;100129.44;5081901;28;20051;-85
2023/10/07 09:55:18;;;;;;;1.40;0.00;;;;;;;8.26;55.40;100131.19;5085053;28;20049;-83
2023/10/07 09:58:00;;;;;;;0.57;0.10;;;;;;;8.23;55.62;100136.44;5077595;28;20619;-74
2023/10/07 10:00:39;;;;;;;2.70;0.00;;;;;;;8.25;55.87;100139.88;5068464;28;20057;-74
2023/10/07 10:03:39;;;;;;;0.22;0.00;;;;;;;8.22;55.95;100131.25;5075019;28;20051;-74
2023/10/07 10:06:26;;;;;;;0.28;0.00;;;;;;;8.27;55.43;100148.50;5070603;28;20047;-75
2023/10/07 10:08:57;;;;;;;0.13;0.10;;;;;;;8.26;55.25;100154.59;5070248;28;20047;-74
2023/10/07 10:11:46;;;;;;;1.17;0.10;;;;;;;8.28;55.24;100167.56;5065915;28;20048;-74
2023/10/07 10:14:19;;;;;;;0.00;0.00;;;;;;;8.29;55.24;100162.34;5069401;28;20489;-74
2023/10/07 10:16:48;;;;;;;0.10;0.00;;;;;;;8.28;55.47;100163.25;5069705;28;20548;-74
2023/10/07 10:19:25;;;;;;;0.38;0.10;;;;;;;8.29;55.44;100169.31;5072086;28;20040;-74
2023/10/07 10:21:52;;;;;;;3.20;0.00;;;;;;;8.30;54.46;100192.69;5071854;28;20045;-74
2023/10/07 10:24:24;;;;;;;1.95;0.10;;;;;;;8.24;54.05;100169.38;5069372;28;20044;-74
2023/10/07 10:26:51;;;;;;;0.52;0.00;;;;;;;8.30;54.42;100197.03;5073649;28;20051;-74
2023/10/07 10:29:25;;;;;;;1.08;0.10;;;;;;;8.18;53.86;100164.28;5070614;28;20052;-77
2023/10/07 10:31:58;;;;;;;1.02;0.10;;;;;;;8.30;53.82;100204.84;5069506;28;20125;-73
2023/10/07 10:34:26;;;;;;;0.30;0.10;;;;;;;8.29;53.45;100208.34;5068410;28;20093;-73
2023/10/07 10:36:56;;;;;;;0.68;0.10;;;;;;;8.30;53.56;100208.28;5069333;28;20533;-74
2023/10/07 10:39:31;;;;;;;0.10;0.00;;;;;;;8.31;53.75;100211.75;5065616;28;20048;-74
2023/10/07 10:42:02;;;;;;;0.03;0.00;;;;;;;8.31;53.71;100206.53;5072045;28;20045;-78
2023/10/07 10:44:38;;;;;;;0.20;0.00;;;;;;;8.29;53.80;100206.59;5069025;28;20493;-73
2023/10/07 10:47:07;;;;;;;0.10;0.00;;;;;;;8.32;53.84;100218.69;5067714;28;20117;-74
2023/10/07 10:49:35;;;;;;;0.20;0.10;;;;;;;8.32;53.21;100222.13;5071514;28;20412;-74
2023/10/07 10:52:02;;;;;;;1.13;0.10;;;;;;;8.32;53.75;100232.53;5065510;28;20059;-73
2023/10/07 10:54:30;;;;;;;0.13;0.00;;;;;;;8.33;53.79;100236.84;5062655;28;20097;-73
2023/10/07 10:56:58;;;;;;;1.40;0.00;;;;;;;8.28;53.78;100235.22;5059483;28;20059;-74
2023/10/07 10:59:42;;;;;;;0.50;0.00;;;;;;;8.36;52.76;100235.94;5068757;28;20184;-74
2023/10/07 11:02:11;;;;;;;0.43;0.08;;;;;;;8.38;53.10;100238.53;5065004;28;20047;-73
2023/10/07 11:04:38;;;;;;;2.85;0.10;;;;;;;8.39;53.48;100248.09;5069220;28;20048;-74
2023/10/07 11:07:07;;;;;;;0.10;0.00;;;;;;;8.40;53.42;100245.47;5065417;28;20055;-74
2023/10/07 11:09:37;;;;;;;1.75;0.10;;;;;;;8.41;53.27;100246.31;5070702;28;20055;-74
2023/10/07 11:12:09;;;;;;;0.47;0.20;;;;;;;8.41;53.24;100241.09;5061752;28;20056;-73
2023/10/07 11:14:40;;;;;;;2.28;0.00;;;;;;;8.42;53.38;100250.63;5066439;28;20127;-74
2023/10/07 11:17:09;;;;;;;1.77;0.03;;;;;;;8.41;52.95;100259.31;5065688;28;20139;-76
2023/10/07 11:19:44;;;;;;;0.15;0.00;;;;;;;8.45;52.63;100251.44;5061311;28;20044;-75
2023/10/07 11:22:18;;;;;;;0.32;0.10;;;;;;;8.45;52.69;100242.75;5066195;28;20044;-74
2023/10/07 11:24:48;;;;;;;0.10;0.00;;;;;;;8.46;52.68;100270.53;5062958;28;20052;-74
2023/10/07 11:27:15;;;;;;;0.32;0.00;;;;;;;8.47;52.46;100293.06;5067660;28;20052;-74
2023/10/07 11:29:44;;;;;;;0.55;0.00;;;;;;;8.48;52.26;100255.72;5065201;28;20460;-75
2023/10/07 11:32:14;;;;;;;0.50;0.00;;;;;;;8.48;52.05;100281.75;5061940;28;20054;-75
2023/10/07 11:34:42;;;;;;;0.13;0.00;;;;;;;8.49;50.96;100286.09;5067523;28;20056;-75
2023/10/07 11:37:13;;;;;;;0.85;0.00;;;;;;;8.48;51.89;100297.38;5067040;28;20053;-75
2023/10/07 11:39:44;;;;;;;0.03;0.00;;;;;;;8.50;52.03;100300.81;5065634;28;20127;-76
2023/10/07 11:42:16;;;;;;;2.85;0.00;;;;;;;8.51;52.33;100305.16;5069990;28;20867;-76
2023/10/07 11:44:47;;;;;;;0.00;0.00;;;;;;;8.52;52.17;100312.06;5072131;28;20044;-75
2023/10/07 11:47:16;;;;;;;1.38;0.00;;;;;;;8.52;52.31;100307.72;5066122;28;20054;-75
2023/10/07 11:49:46;;;;;;;0.95;0.00;;;;;;;8.55;51.88;100330.22;5071150;28;20053;-76
2023/10/07 11:52:13;;;;;;;0.13;0.00;;;;;;;8.55;51.88;100328.47;5060351;28;20040;-75
2023/10/07 11:54:40;;;;;;;0.73;0.00;;;;;;;8.55;52.30;100336.28;5073531;28;20447;-75
2023/10/07 11:57:07;;;;;;;2.38;0.00;;;;;;;8.56;52.56;100324.13;5067224;28;20682;-76
2023/10/07 11:59:35;;;;;;;0.10;0.00;;;;;;;8.54;52.19;100337.19;5070607;28;20501;-74
2023/10/07 12:02:09;;;;;;;0.00;0.00;;;;;;;8.58;52.04;100331.91;5067381;28;20048;-74
2023/10/07 12:04:41;;;;;;;0.00;0.00;;;;;;;8.59;51.67;100344.03;5071853;28;20048;-75
2023/10/07 12:07:12;;;;;;;0.00;0.00;;;;;;;8.60;52.40;100350.97;5073625;28;20518;-75
2023/10/07 12:09:39;;;;;;;0.80;0.00;;;;;;;8.60;52.56;100358.78;5074267;28;20072;-75
2023/10/07 12:12:09;;;;;;;0.70;0.00;;;;;;;8.62;51.94;100354.41;5067848;28;20040;-75